This is the latest recevied weather packets stored in our database for station/object IW1EYZ-3. If no packets are shown the sender has not sent any weather packets the latest 10 day(s).
| Time | Temp. | Humidity | Pressure | Rain* | Wind** | Luminosity | Snow |
|---|---|---|---|---|---|---|---|
| 1777032540 | 25.56° C | 38% | 1020.7 hPa | - | - | - | - |
| 1777031339 | 25.56° C | 41% | 1020.7 hPa | - | - | - | - |
| 1777030139 | 25.56° C | 40% | 1020.7 hPa | - | - | - | - |
| 1777028939 | 25° C | 40% | 1020.9 hPa | - | - | - | - |
| 1777027738 | 24.44° C | 41% | 1021.1 hPa | - | - | - | - |
| 1777026538 | 23.33° C | 44% | 1021.1 hPa | - | - | - | - |
| 1777025338 | 22.22° C | 48% | 1021.1 hPa | - | - | - | - |
| 1777024137 | 21.67° C | 48% | 1021.2 hPa | - | - | - | - |
| 1777022937 | 20° C | 52% | 1021.4 hPa | - | - | - | - |
| 1777021737 | 19.44° C | 54% | 1021.4 hPa | - | - | - | - |
| 1777020536 | 19.44° C | 56% | 1021.4 hPa | - | - | - | - |
| 1777019336 | 16.67° C | 63% | 1021.5 hPa | - | - | - | - |
| 1777018136 | 16.67° C | 63% | 1021.3 hPa | - | - | - | - |
| 1777016935 | 16.67° C | 63% | 1021.3 hPa | - | - | - | - |
| 1777015735 | 16.11° C | 63% | 1021.3 hPa | - | - | - | - |
| 1777014535 | 15.56° C | 64% | 1021.4 hPa | - | - | - | - |
| 1777013334 | 15.56° C | 66% | 1021.4 hPa | - | - | - | - |
| 1777012134 | 15° C | 67% | 1021.2 hPa | - | - | - | - |
| 1777010934 | 14.44° C | 68% | 1021 hPa | - | - | - | - |
| 1777009733 | 13.89° C | 66% | 1020.9 hPa | - | - | - | - |
| 1777008533 | 13.89° C | 69% | 1020.8 hPa | - | - | - | - |
| 1777007333 | 13.89° C | 69% | 1020.6 hPa | - | - | - | - |
| 1777006133 | 13.33° C | 69% | 1020.4 hPa | - | - | - | - |
| 1777004932 | 13.33° C | 68% | 1020.2 hPa | - | - | - | - |
| 1777003732 | 13.33° C | 73% | 1020.1 hPa | - | - | - | - |
* Rain since midnight (hover to see other rain measurements)
** Current wind speed in m/s (hover to see current wind gust speed)